SOL701 YBBN-AGGH
Flight info
| Callsign | SOL701 |
|---|---|
| Flight time | 2h 42m |
| Altitude | 37000 |
| Route | BIXAD A598 DASSA DASSA1A |
| Aircraft | A320/M-SDE3FGHIRWY/LB1 |
Departure
| Time | 2026-04-17 22:54 |
|---|---|
| Airport | Brisbane International Airport (YBBN) |
Arrival
| Time | 2026-04-18 01:37 |
|---|---|
| Airport | Honiara International Airport (AGGH) |
| Time | Latitude | Longitude | Altitude | Speed | Heading |
|---|---|---|---|---|---|
| 2026-04-17 22:21 | -27.40111 | 153.11292 | 18 ft | 0 kts | 308° |
| 2026-04-17 22:37 | -27.40119 | 153.11303 | 18 ft | 4 kts | 298° |
| 2026-04-17 22:37 | -27.40129 | 153.11330 | 18 ft | 4 kts | 305° |
| 2026-04-17 22:38 | -27.40146 | 153.11350 | 18 ft | 4 kts | 336° |
| 2026-04-17 22:38 | -27.40168 | 153.11351 | 19 ft | 4 kts | 32° |
| 2026-04-17 22:38 | -27.40187 | 153.11335 | 20 ft | 2 kts | 38° |
| 2026-04-17 22:38 | -27.40207 | 153.11319 | 20 ft | 4 kts | 32° |
| 2026-04-17 22:39 | -27.40231 | 153.11303 | 19 ft | 4 kts | 27° |
| 2026-04-17 22:39 | -27.40255 | 153.11290 | 19 ft | 3 kts | 31° |
| 2026-04-17 22:39 | -27.40258 | 153.11288 | 19 ft | 0 kts | 31° |
| 2026-04-17 22:42 | -27.40253 | 153.11291 | 19 ft | 0 kts | 31° |
| 2026-04-17 22:42 | -27.40244 | 153.11297 | 20 ft | 3 kts | 31° |
| 2026-04-17 22:42 | -27.40215 | 153.11317 | 19 ft | 7 kts | 36° |
| 2026-04-17 22:42 | -27.40192 | 153.11378 | 19 ft | 11 kts | 97° |
| 2026-04-17 22:43 | -27.40216 | 153.11473 | 18 ft | 14 kts | 81° |
| 2026-04-17 22:43 | -27.40129 | 153.11542 | 18 ft | 18 kts | 26° |
| 2026-04-17 22:43 | -27.40007 | 153.11611 | 18 ft | 21 kts | 27° |
| 2026-04-17 22:43 | -27.39865 | 153.11693 | 18 ft | 25 kts | 27° |
| 2026-04-17 22:44 | -27.39703 | 153.11785 | 18 ft | 27 kts | 27° |
| 2026-04-17 22:44 | -27.39530 | 153.11884 | 18 ft | 29 kts | 26° |
| 2026-04-17 22:44 | -27.39365 | 153.11977 | 20 ft | 24 kts | 27° |
| 2026-04-17 22:44 | -27.39208 | 153.12068 | 20 ft | 26 kts | 27° |
| 2026-04-17 22:45 | -27.39038 | 153.12165 | 18 ft | 28 kts | 27° |
| 2026-04-17 22:45 | -27.38858 | 153.12267 | 19 ft | 30 kts | 26° |
| 2026-04-17 22:45 | -27.38668 | 153.12375 | 18 ft | 30 kts | 26° |
| 2026-04-17 22:45 | -27.38497 | 153.12475 | 18 ft | 27 kts | 28° |
| 2026-04-17 22:46 | -27.38324 | 153.12573 | 18 ft | 29 kts | 27° |
| 2026-04-17 22:46 | -27.38145 | 153.12676 | 18 ft | 25 kts | 27° |
| 2026-04-17 22:46 | -27.38009 | 153.12753 | 18 ft | 14 kts | 26° |
| 2026-04-17 22:46 | -27.37928 | 153.12715 | 18 ft | 15 kts | 298° |
| 2026-04-17 22:47 | -27.37876 | 153.12601 | 18 ft | 18 kts | 297° |
| 2026-04-17 22:47 | -27.37817 | 153.12470 | 18 ft | 20 kts | 297° |
| 2026-04-17 22:47 | -27.37750 | 153.12326 | 18 ft | 22 kts | 298° |
| 2026-04-17 22:47 | -27.37677 | 153.12168 | 18 ft | 24 kts | 297° |
| 2026-04-17 22:48 | -27.37599 | 153.11997 | 18 ft | 25 kts | 296° |
| 2026-04-17 22:48 | -27.37516 | 153.11816 | 18 ft | 27 kts | 297° |
| 2026-04-17 22:48 | -27.37431 | 153.11626 | 18 ft | 22 kts | 296° |
| 2026-04-17 22:48 | -27.37339 | 153.11564 | 18 ft | 18 kts | 22° |
| 2026-04-17 22:49 | -27.37222 | 153.11628 | 18 ft | 20 kts | 26° |
| 2026-04-17 22:49 | -27.37094 | 153.11701 | 18 ft | 22 kts | 27° |
| 2026-04-17 22:49 | -27.36954 | 153.11782 | 17 ft | 24 kts | 26° |
| 2026-04-17 22:49 | -27.36801 | 153.11869 | 18 ft | 26 kts | 26° |
| 2026-04-17 22:50 | -27.36639 | 153.11961 | 17 ft | 27 kts | 26° |
| 2026-04-17 22:50 | -27.36470 | 153.12058 | 18 ft | 29 kts | 26° |
| 2026-04-17 22:50 | -27.36289 | 153.12161 | 18 ft | 29 kts | 27° |
| 2026-04-17 22:50 | -27.36112 | 153.12261 | 18 ft | 28 kts | 26° |
| 2026-04-17 22:51 | -27.35956 | 153.12351 | 18 ft | 22 kts | 28° |
| 2026-04-17 22:51 | -27.35841 | 153.12364 | 17 ft | 17 kts | 327° |
| 2026-04-17 22:51 | -27.35748 | 153.12292 | 19 ft | 3 kts | 326° |
| 2026-04-17 22:51 | -27.35748 | 153.12291 | 19 ft | 0 kts | 326° |
| 2026-04-17 22:53 | -27.35731 | 153.12279 | 19 ft | 8 kts | 326° |
| 2026-04-17 22:53 | -27.35685 | 153.12226 | 21 ft | 10 kts | 301° |
| 2026-04-17 22:53 | -27.35704 | 153.12165 | 20 ft | 10 kts | 202° |
| 2026-04-17 22:53 | -27.35787 | 153.12122 | 21 ft | 27 kts | 207° |
| 2026-04-17 22:54 | -27.36172 | 153.11901 | 22 ft | 94 kts | 206° |
| 2026-04-17 22:54 | -27.36907 | 153.11478 | 19 ft | 143 kts | 207° |
| 2026-04-17 22:54 | -27.37850 | 153.10955 | 439 ft | 146 kts | 205° |
| 2026-04-17 22:54 | -27.38776 | 153.10457 | 976 ft | 149 kts | 207° |
| 2026-04-17 22:55 | -27.39735 | 153.09911 | 1304 ft | 164 kts | 207° |
| 2026-04-17 22:55 | -27.40814 | 153.09286 | 1507 ft | 186 kts | 206° |
| 2026-04-17 22:55 | -27.42025 | 153.08584 | 1737 ft | 211 kts | 207° |
| 2026-04-17 22:55 | -27.43405 | 153.07786 | 2185 ft | 234 kts | 206° |
| 2026-04-17 22:56 | -27.44897 | 153.06926 | 2919 ft | 244 kts | 206° |
| 2026-04-17 22:56 | -27.46421 | 153.06050 | 3804 ft | 248 kts | 206° |
| 2026-04-17 22:56 | -27.47914 | 153.05054 | 4741 ft | 251 kts | 222° |
| 2026-04-17 22:56 | -27.48776 | 153.03382 | 5616 ft | 256 kts | 256° |
| 2026-04-17 22:57 | -27.48879 | 153.01385 | 6654 ft | 254 kts | 270° |
| 2026-04-17 22:57 | -27.48695 | 152.99404 | 7597 ft | 254 kts | 274° |
| 2026-04-17 22:57 | -27.48459 | 152.97418 | 8454 ft | 256 kts | 274° |
| 2026-04-17 22:57 | -27.48257 | 152.95413 | 9288 ft | 259 kts | 272° |
| 2026-04-17 22:58 | -27.48013 | 152.93391 | 10091 ft | 264 kts | 284° |
| 2026-04-17 22:58 | -27.47118 | 152.91556 | 10788 ft | 275 kts | 308° |
| 2026-04-17 22:58 | -27.45546 | 152.90311 | 11469 ft | 290 kts | 335° |
| 2026-04-17 22:58 | -27.43482 | 152.90011 | 12156 ft | 305 kts | 3° |
| 2026-04-17 22:59 | -27.41470 | 152.90777 | 12744 ft | 319 kts | 30° |
| 2026-04-17 22:59 | -27.39684 | 152.92417 | 12934 ft | 345 kts | 45° |
| 2026-04-17 22:59 | -27.38097 | 152.94568 | 13084 ft | 367 kts | 53° |
| 2026-04-17 22:59 | -27.36647 | 152.97004 | 13532 ft | 378 kts | 57° |
| 2026-04-17 23:00 | -27.35272 | 152.99504 | 14105 ft | 383 kts | 58° |
| 2026-04-17 23:00 | -27.33858 | 153.02064 | 14656 ft | 387 kts | 57° |
| 2026-04-17 23:00 | -27.32382 | 153.04629 | 15213 ft | 391 kts | 55° |
| 2026-04-17 23:00 | -27.30842 | 153.07185 | 15776 ft | 395 kts | 53° |
| 2026-04-17 23:01 | -27.29144 | 153.09628 | 16325 ft | 396 kts | 43° |
| 2026-04-17 23:01 | -27.27122 | 153.11685 | 16881 ft | 398 kts | 37° |
| 2026-04-17 23:01 | -27.24990 | 153.13714 | 17455 ft | 402 kts | 37° |
| 2026-04-17 23:01 | -27.22828 | 153.15721 | 17998 ft | 404 kts | 32° |
| 2026-04-17 23:02 | -27.20440 | 153.17378 | 18529 ft | 402 kts | 21° |
| 2026-04-17 23:02 | -27.17882 | 153.18543 | 19027 ft | 400 kts | 12° |
| 2026-04-17 23:02 | -27.15212 | 153.19487 | 19556 ft | 403 kts | 11° |
| 2026-04-17 23:02 | -27.12524 | 153.20428 | 20092 ft | 406 kts | 11° |
| 2026-04-17 23:03 | -27.09815 | 153.21374 | 20611 ft | 409 kts | 10° |
| 2026-04-17 23:03 | -27.07080 | 153.22332 | 21140 ft | 412 kts | 10° |
| 2026-04-17 23:03 | -27.04331 | 153.23279 | 21660 ft | 412 kts | 7° |
| 2026-04-17 23:03 | -27.01561 | 153.23860 | 22144 ft | 407 kts | 357° |
| 2026-04-17 23:04 | -26.98741 | 153.23991 | 22650 ft | 404 kts | 352° |
| 2026-04-17 23:04 | -26.95920 | 153.24041 | 23167 ft | 407 kts | 352° |
| 2026-04-17 23:04 | -26.93070 | 153.24094 | 23667 ft | 410 kts | 352° |
| 2026-04-17 23:04 | -26.90207 | 153.24153 | 24073 ft | 412 kts | 352° |
| 2026-04-17 23:05 | -26.87362 | 153.24214 | 24472 ft | 414 kts | 352° |
| 2026-04-17 23:05 | -26.84470 | 153.24280 | 24880 ft | 417 kts | 351° |
| 2026-04-17 23:05 | -26.81557 | 153.24347 | 25253 ft | 418 kts | 351° |
| 2026-04-17 23:05 | -26.78636 | 153.24413 | 25651 ft | 420 kts | 351° |
| 2026-04-17 23:06 | -26.75702 | 153.24477 | 26035 ft | 422 kts | 351° |
| 2026-04-17 23:06 | -26.72755 | 153.24543 | 26412 ft | 425 kts | 351° |
| 2026-04-17 23:06 | -26.69765 | 153.24921 | 26740 ft | 440 kts | 1° |
| 2026-04-17 23:06 | -26.66801 | 153.25871 | 27096 ft | 457 kts | 11° |
| 2026-04-17 23:07 | -26.63862 | 153.27359 | 27433 ft | 466 kts | 15° |
| 2026-04-17 23:07 | -26.60922 | 153.28920 | 27755 ft | 468 kts | 15° |
| 2026-04-17 23:07 | -26.57969 | 153.30482 | 28082 ft | 471 kts | 15° |
| 2026-04-17 23:07 | -26.55028 | 153.32029 | 28368 ft | 473 kts | 15° |
| 2026-04-17 23:08 | -26.52037 | 153.33595 | 28696 ft | 475 kts | 14° |
| 2026-04-17 23:08 | -26.49017 | 153.35174 | 29023 ft | 477 kts | 14° |
| 2026-04-17 23:08 | -26.46029 | 153.36737 | 29337 ft | 480 kts | 14° |
| 2026-04-17 23:08 | -26.42998 | 153.38321 | 29647 ft | 483 kts | 14° |
| 2026-04-17 23:09 | -26.39943 | 153.39922 | 29955 ft | 485 kts | 14° |
| 2026-04-17 23:09 | -26.36878 | 153.41530 | 30241 ft | 488 kts | 14° |
| 2026-04-17 23:09 | -26.33799 | 153.43150 | 30486 ft | 490 kts | 14° |
| 2026-04-17 23:09 | -26.30699 | 153.44780 | 30702 ft | 493 kts | 14° |
| 2026-04-17 23:10 | -26.27613 | 153.46397 | 30956 ft | 495 kts | 14° |
| 2026-04-17 23:10 | -26.24487 | 153.48035 | 31295 ft | 495 kts | 14° |
| 2026-04-17 23:10 | -26.21372 | 153.49665 | 31624 ft | 495 kts | 14° |
| 2026-04-17 23:10 | -26.18236 | 153.51301 | 31951 ft | 496 kts | 14° |
| 2026-04-17 23:11 | -26.15104 | 153.52934 | 32280 ft | 496 kts | 14° |
| 2026-04-17 23:11 | -26.12010 | 153.54545 | 32607 ft | 497 kts | 14° |
| 2026-04-17 23:11 | -26.08872 | 153.56179 | 32932 ft | 497 kts | 14° |
| 2026-04-17 23:11 | -26.05735 | 153.57811 | 33245 ft | 497 kts | 14° |
| 2026-04-17 23:12 | -26.03654 | 153.58893 | 33468 ft | 498 kts | 14° |
| 2026-04-17 23:12 | -26.00506 | 153.60531 | 33811 ft | 498 kts | 14° |
| 2026-04-17 23:12 | -25.97370 | 153.62165 | 34126 ft | 498 kts | 14° |
| 2026-04-17 23:12 | -25.94228 | 153.63802 | 34402 ft | 498 kts | 14° |
| 2026-04-17 23:13 | -25.91079 | 153.65440 | 34678 ft | 499 kts | 14° |
| 2026-04-17 23:13 | -25.87934 | 153.67074 | 34926 ft | 499 kts | 14° |
| 2026-04-17 23:13 | -25.84783 | 153.68703 | 35032 ft | 499 kts | 14° |
| 2026-04-17 23:13 | -25.81632 | 153.70334 | 35028 ft | 498 kts | 14° |
| 2026-04-17 23:14 | -25.75386 | 153.73570 | 35054 ft | 497 kts | 14° |
| 2026-04-17 23:14 | -25.69099 | 153.76825 | 35053 ft | 498 kts | 14° |
| 2026-04-17 23:15 | -25.62821 | 153.80074 | 35054 ft | 498 kts | 14° |
| 2026-04-17 23:15 | -25.56571 | 153.83297 | 35021 ft | 498 kts | 14° |
| 2026-04-17 23:16 | -25.50291 | 153.86531 | 35043 ft | 497 kts | 14° |
| 2026-04-17 23:16 | -25.44011 | 153.89763 | 35055 ft | 497 kts | 14° |
| 2026-04-17 23:17 | -25.37723 | 153.93002 | 35065 ft | 497 kts | 14° |
| 2026-04-17 23:17 | -25.31486 | 153.96217 | 35063 ft | 497 kts | 14° |
| 2026-04-17 23:18 | -25.25198 | 153.99445 | 35064 ft | 497 kts | 14° |
| 2026-04-17 23:18 | -25.18959 | 154.02638 | 35065 ft | 497 kts | 14° |
| 2026-04-17 23:19 | -25.12676 | 154.05856 | 35075 ft | 497 kts | 14° |
| 2026-04-17 23:19 | -25.06384 | 154.09070 | 35038 ft | 497 kts | 15° |
| 2026-04-17 23:20 | -25.00144 | 154.12258 | 35051 ft | 496 kts | 15° |
| 2026-04-17 23:20 | -24.93867 | 154.15463 | 35060 ft | 496 kts | 15° |
| 2026-04-17 23:21 | -24.87644 | 154.18643 | 35060 ft | 495 kts | 15° |
| 2026-04-17 23:21 | -24.81374 | 154.21833 | 35060 ft | 495 kts | 15° |
| 2026-04-17 23:22 | -24.75113 | 154.25016 | 35047 ft | 494 kts | 15° |
| 2026-04-17 23:22 | -24.68845 | 154.28099 | 35055 ft | 491 kts | 12° |
| 2026-04-17 23:23 | -24.62526 | 154.30766 | 35063 ft | 487 kts | 9° |
| 2026-04-17 23:23 | -24.56132 | 154.33272 | 35067 ft | 486 kts | 9° |
| 2026-04-17 23:24 | -24.49772 | 154.35836 | 35054 ft | 487 kts | 11° |
| 2026-04-17 23:24 | -24.43464 | 154.38456 | 35074 ft | 487 kts | 11° |
| 2026-04-17 23:25 | -24.37120 | 154.41113 | 35073 ft | 487 kts | 11° |
| 2026-04-17 23:25 | -24.30777 | 154.43742 | 35073 ft | 486 kts | 11° |
| 2026-04-17 23:26 | -24.24434 | 154.46350 | 35051 ft | 486 kts | 11° |
| 2026-04-17 23:26 | -24.18130 | 154.48957 | 35063 ft | 486 kts | 11° |
| 2026-04-17 23:27 | -24.11795 | 154.51566 | 35075 ft | 486 kts | 11° |
| 2026-04-17 23:27 | -24.05454 | 154.54172 | 35075 ft | 485 kts | 11° |
| 2026-04-17 23:28 | -23.99157 | 154.56755 | 35056 ft | 485 kts | 11° |
| 2026-04-17 23:28 | -23.92824 | 154.59356 | 35065 ft | 485 kts | 11° |
| 2026-04-17 23:29 | -23.86496 | 154.61955 | 35073 ft | 486 kts | 11° |
| 2026-04-17 23:29 | -23.80202 | 154.64542 | 35076 ft | 486 kts | 11° |
| 2026-04-17 23:30 | -23.73861 | 154.67137 | 35060 ft | 486 kts | 12° |
| 2026-04-17 23:30 | -23.67523 | 154.69727 | 35069 ft | 486 kts | 12° |
| 2026-04-17 23:31 | -23.61213 | 154.72309 | 35075 ft | 486 kts | 12° |
| 2026-04-17 23:31 | -23.54868 | 154.74901 | 35079 ft | 486 kts | 12° |
| 2026-04-17 23:32 | -23.48512 | 154.77483 | 35081 ft | 486 kts | 12° |
| 2026-04-17 23:32 | -23.42208 | 154.80050 | 35072 ft | 486 kts | 12° |
| 2026-04-17 23:33 | -23.35851 | 154.82639 | 35078 ft | 486 kts | 12° |
| 2026-04-17 23:33 | -23.29547 | 154.85198 | 35081 ft | 485 kts | 12° |
| 2026-04-17 23:34 | -23.23216 | 154.87768 | 35083 ft | 485 kts | 12° |
| 2026-04-17 23:34 | -23.16881 | 154.90348 | 35062 ft | 485 kts | 12° |
| 2026-04-17 23:35 | -23.10595 | 154.92895 | 35072 ft | 485 kts | 12° |
| 2026-04-17 23:35 | -23.04258 | 154.95463 | 35077 ft | 485 kts | 12° |
| 2026-04-17 23:36 | -22.97935 | 154.98016 | 35079 ft | 485 kts | 12° |
| 2026-04-17 23:36 | -22.91608 | 155.00566 | 35066 ft | 485 kts | 13° |
| 2026-04-17 23:37 | -22.85321 | 155.03106 | 35072 ft | 484 kts | 13° |
| 2026-04-17 23:37 | -22.78997 | 155.05658 | 35079 ft | 484 kts | 13° |
| 2026-04-17 23:38 | -22.72657 | 155.08215 | 35089 ft | 484 kts | 13° |
| 2026-04-17 23:38 | -22.66368 | 155.10747 | 35076 ft | 484 kts | 13° |
| 2026-04-17 23:39 | -22.60039 | 155.13287 | 35083 ft | 484 kts | 12° |
| 2026-04-17 23:39 | -22.53747 | 155.15805 | 35087 ft | 484 kts | 12° |
| 2026-04-17 23:40 | -22.47407 | 155.18352 | 35073 ft | 484 kts | 13° |
| 2026-04-17 23:40 | -22.41127 | 155.20877 | 35073 ft | 484 kts | 13° |
| 2026-04-17 23:41 | -22.34797 | 155.23410 | 35054 ft | 484 kts | 13° |
| 2026-04-17 23:41 | -22.28482 | 155.25930 | 35065 ft | 483 kts | 13° |
| 2026-04-17 23:42 | -22.22213 | 155.28430 | 35080 ft | 483 kts | 13° |
| 2026-04-17 23:42 | -22.15888 | 155.30953 | 35078 ft | 483 kts | 13° |
| 2026-04-17 23:43 | -22.09605 | 155.33464 | 35075 ft | 483 kts | 13° |
| 2026-04-17 23:43 | -22.03300 | 155.35984 | 35055 ft | 483 kts | 13° |
| 2026-04-17 23:44 | -21.96990 | 155.38494 | 35063 ft | 483 kts | 13° |
| 2026-04-17 23:44 | -21.90681 | 155.41003 | 35067 ft | 483 kts | 13° |
| 2026-04-17 23:45 | -21.81248 | 155.44752 | 35067 ft | 483 kts | 13° |
| 2026-04-17 23:46 | -21.74972 | 155.47247 | 35057 ft | 483 kts | 13° |
| 2026-04-17 23:46 | -21.68660 | 155.49754 | 35063 ft | 483 kts | 13° |
| 2026-04-17 23:47 | -21.62353 | 155.52248 | 35067 ft | 483 kts | 13° |
| 2026-04-17 23:47 | -21.56032 | 155.54755 | 35065 ft | 483 kts | 13° |
| 2026-04-17 23:48 | -21.49773 | 155.57234 | 35048 ft | 482 kts | 14° |
| 2026-04-17 23:48 | -21.43463 | 155.59715 | 35058 ft | 482 kts | 14° |
| 2026-04-17 23:49 | -21.37148 | 155.62206 | 35075 ft | 482 kts | 14° |
| 2026-04-17 23:49 | -21.30873 | 155.64679 | 35070 ft | 482 kts | 14° |
| 2026-04-17 23:50 | -21.24593 | 155.67150 | 35069 ft | 482 kts | 14° |
| 2026-04-17 23:50 | -21.18280 | 155.69634 | 35058 ft | 482 kts | 14° |
| 2026-04-17 23:51 | -21.11973 | 155.72115 | 35066 ft | 482 kts | 14° |
| 2026-04-17 23:51 | -21.05697 | 155.74579 | 35069 ft | 482 kts | 14° |
| 2026-04-17 23:52 | -20.99395 | 155.77049 | 35070 ft | 481 kts | 14° |
| 2026-04-17 23:52 | -20.93145 | 155.79501 | 35064 ft | 481 kts | 15° |
| 2026-04-17 23:53 | -20.86861 | 155.81971 | 35068 ft | 480 kts | 15° |
| 2026-04-17 23:53 | -20.80580 | 155.84433 | 35068 ft | 479 kts | 15° |
| 2026-04-17 23:54 | -20.74354 | 155.86862 | 35071 ft | 479 kts | 15° |
| 2026-04-17 23:54 | -20.68082 | 155.89319 | 35071 ft | 478 kts | 15° |
| 2026-04-17 23:55 | -20.61867 | 155.91751 | 35063 ft | 477 kts | 15° |
| 2026-04-17 23:55 | -20.55617 | 155.94183 | 35071 ft | 477 kts | 15° |
| 2026-04-17 23:56 | -20.49404 | 155.96597 | 35069 ft | 476 kts | 15° |
| 2026-04-17 23:56 | -20.43178 | 155.99019 | 35068 ft | 476 kts | 15° |
| 2026-04-17 23:57 | -20.36952 | 156.01447 | 35052 ft | 475 kts | 15° |
| 2026-04-17 23:57 | -20.30770 | 156.03855 | 35056 ft | 475 kts | 15° |
| 2026-04-17 23:58 | -20.24554 | 156.06265 | 35058 ft | 474 kts | 15° |
| 2026-04-17 23:58 | -20.19389 | 156.08271 | 35060 ft | 474 kts | 15° |
| 2026-04-17 23:59 | -20.12174 | 156.11072 | 35059 ft | 474 kts | 15° |
| 2026-04-17 23:59 | -20.07012 | 156.13070 | 35044 ft | 474 kts | 15° |
| 2026-04-18 00:00 | -20.00805 | 156.15470 | 35048 ft | 474 kts | 15° |
| 2026-04-18 00:00 | -19.94592 | 156.17870 | 35052 ft | 474 kts | 15° |
| 2026-04-18 00:01 | -19.88415 | 156.20256 | 35055 ft | 474 kts | 15° |
| 2026-04-18 00:01 | -19.82206 | 156.22650 | 35051 ft | 474 kts | 15° |
| 2026-04-18 00:02 | -19.76030 | 156.25044 | 35054 ft | 474 kts | 16° |
| 2026-04-18 00:02 | -19.69827 | 156.27470 | 35049 ft | 474 kts | 16° |
| 2026-04-18 00:03 | -19.63670 | 156.29873 | 35051 ft | 474 kts | 16° |
| 2026-04-18 00:03 | -19.57462 | 156.32286 | 35047 ft | 474 kts | 15° |
| 2026-04-18 00:04 | -19.51296 | 156.34673 | 35047 ft | 474 kts | 15° |
| 2026-04-18 00:04 | -19.45087 | 156.37081 | 35037 ft | 474 kts | 16° |
| 2026-04-18 00:05 | -19.38883 | 156.39494 | 35034 ft | 474 kts | 16° |
| 2026-04-18 00:05 | -19.32714 | 156.41881 | 35034 ft | 474 kts | 16° |
| 2026-04-18 00:06 | -19.26493 | 156.44285 | 35038 ft | 474 kts | 16° |
| 2026-04-18 00:06 | -19.20325 | 156.46671 | 35025 ft | 474 kts | 16° |
| 2026-04-18 00:07 | -19.14123 | 156.49063 | 35036 ft | 474 kts | 16° |
| 2026-04-18 00:07 | -19.07924 | 156.51459 | 35039 ft | 474 kts | 16° |
| 2026-04-18 00:08 | -19.01755 | 156.53850 | 35039 ft | 474 kts | 16° |
| 2026-04-18 00:08 | -18.95562 | 156.56250 | 35040 ft | 473 kts | 16° |
| 2026-04-18 00:09 | -18.89364 | 156.58629 | 35025 ft | 473 kts | 17° |
| 2026-04-18 00:09 | -18.83156 | 156.61006 | 35025 ft | 474 kts | 17° |
| 2026-04-18 00:10 | -18.76988 | 156.63379 | 35027 ft | 474 kts | 17° |
| 2026-04-18 00:10 | -18.70769 | 156.65771 | 35028 ft | 474 kts | 17° |
| 2026-04-18 00:11 | -18.64600 | 156.68139 | 35021 ft | 474 kts | 17° |
| 2026-04-18 00:11 | -18.58390 | 156.70520 | 35019 ft | 474 kts | 17° |
| 2026-04-18 00:12 | -18.52188 | 156.72899 | 35023 ft | 474 kts | 17° |
| 2026-04-18 00:12 | -18.45992 | 156.75275 | 35024 ft | 473 kts | 17° |
| 2026-04-18 00:13 | -18.39787 | 156.77648 | 35020 ft | 473 kts | 17° |
| 2026-04-18 00:13 | -18.33632 | 156.80000 | 35021 ft | 473 kts | 17° |
| 2026-04-18 00:14 | -18.27433 | 156.82373 | 35019 ft | 473 kts | 17° |
| 2026-04-18 00:14 | -18.21244 | 156.84737 | 35024 ft | 472 kts | 17° |
| 2026-04-18 00:15 | -18.15094 | 156.87078 | 35020 ft | 472 kts | 17° |
| 2026-04-18 00:15 | -18.08920 | 156.89436 | 35022 ft | 471 kts | 17° |
| 2026-04-18 00:16 | -18.02781 | 156.91776 | 35017 ft | 471 kts | 17° |
| 2026-04-18 00:16 | -17.96613 | 156.94126 | 35017 ft | 471 kts | 17° |
| 2026-04-18 00:17 | -17.90436 | 156.96473 | 35013 ft | 471 kts | 17° |
| 2026-04-18 00:17 | -17.84316 | 156.98801 | 35013 ft | 470 kts | 17° |
| 2026-04-18 00:18 | -17.78154 | 157.01146 | 35013 ft | 470 kts | 17° |
| 2026-04-18 00:18 | -17.71988 | 157.03490 | 35012 ft | 470 kts | 17° |
| 2026-04-18 00:19 | -17.65858 | 157.05808 | 35007 ft | 469 kts | 18° |
| 2026-04-18 00:19 | -17.59709 | 157.08131 | 35010 ft | 469 kts | 18° |
| 2026-04-18 00:20 | -17.53601 | 157.10456 | 35009 ft | 469 kts | 18° |
| 2026-04-18 00:20 | -17.47463 | 157.12782 | 35008 ft | 468 kts | 18° |
| 2026-04-18 00:21 | -17.41330 | 157.15099 | 35002 ft | 468 kts | 18° |
| 2026-04-18 00:21 | -17.35195 | 157.17413 | 35000 ft | 468 kts | 18° |
| 2026-04-18 00:22 | -17.29098 | 157.19717 | 35005 ft | 467 kts | 18° |
| 2026-04-18 00:22 | -17.22982 | 157.22026 | 35004 ft | 467 kts | 18° |
| 2026-04-18 00:23 | -17.16864 | 157.24333 | 34999 ft | 467 kts | 18° |
| 2026-04-18 00:23 | -17.10774 | 157.26629 | 34999 ft | 467 kts | 18° |
| 2026-04-18 00:24 | -17.04651 | 157.28941 | 34996 ft | 466 kts | 18° |
| 2026-04-18 00:24 | -16.98584 | 157.31227 | 34997 ft | 466 kts | 18° |
| 2026-04-18 00:25 | -16.92470 | 157.33521 | 34995 ft | 466 kts | 18° |
| 2026-04-18 00:25 | -16.86355 | 157.35815 | 34995 ft | 465 kts | 18° |
| 2026-04-18 00:26 | -16.80279 | 157.38103 | 34994 ft | 465 kts | 18° |
| 2026-04-18 00:26 | -16.74171 | 157.40400 | 34993 ft | 465 kts | 18° |
| 2026-04-18 00:27 | -16.68106 | 157.42671 | 34992 ft | 465 kts | 18° |
| 2026-04-18 00:27 | -16.61994 | 157.44960 | 34992 ft | 465 kts | 18° |
| 2026-04-18 00:28 | -16.55925 | 157.47235 | 34989 ft | 465 kts | 18° |
| 2026-04-18 00:28 | -16.49819 | 157.49519 | 34988 ft | 465 kts | 18° |
| 2026-04-18 00:29 | -16.43724 | 157.51788 | 34984 ft | 465 kts | 18° |
| 2026-04-18 00:29 | -16.37616 | 157.54061 | 34985 ft | 465 kts | 18° |
| 2026-04-18 00:30 | -16.31545 | 157.56326 | 34980 ft | 465 kts | 18° |
| 2026-04-18 00:30 | -16.25440 | 157.58608 | 34981 ft | 465 kts | 18° |
| 2026-04-18 00:31 | -16.19372 | 157.60878 | 34983 ft | 465 kts | 18° |
| 2026-04-18 00:31 | -16.13256 | 157.63160 | 34979 ft | 465 kts | 19° |
| 2026-04-18 00:32 | -16.07188 | 157.65409 | 34982 ft | 465 kts | 18° |
| 2026-04-18 00:32 | -16.01076 | 157.67680 | 34982 ft | 465 kts | 19° |
| 2026-04-18 00:33 | -15.95006 | 157.69944 | 34980 ft | 465 kts | 19° |
| 2026-04-18 00:33 | -15.88897 | 157.72209 | 34978 ft | 465 kts | 18° |
| 2026-04-18 00:34 | -15.82784 | 157.74472 | 34976 ft | 465 kts | 19° |
| 2026-04-18 00:34 | -15.76722 | 157.76727 | 34979 ft | 465 kts | 19° |
| 2026-04-18 00:35 | -15.70613 | 157.78991 | 34983 ft | 465 kts | 19° |
| 2026-04-18 00:35 | -15.64504 | 157.81245 | 34983 ft | 465 kts | 19° |
| 2026-04-18 00:36 | -15.58437 | 157.83486 | 34980 ft | 465 kts | 19° |
| 2026-04-18 00:36 | -15.52334 | 157.85751 | 34977 ft | 465 kts | 19° |
| 2026-04-18 00:37 | -15.46262 | 157.88003 | 34980 ft | 465 kts | 19° |
| 2026-04-18 00:37 | -15.40165 | 157.90256 | 34985 ft | 464 kts | 19° |
| 2026-04-18 00:38 | -15.34071 | 157.92503 | 34984 ft | 464 kts | 19° |
| 2026-04-18 00:38 | -15.28029 | 157.94737 | 34980 ft | 464 kts | 19° |
| 2026-04-18 00:39 | -15.21947 | 157.96982 | 34980 ft | 464 kts | 19° |
| 2026-04-18 00:39 | -15.15847 | 157.99226 | 34981 ft | 463 kts | 19° |
| 2026-04-18 00:40 | -15.09800 | 158.01446 | 34982 ft | 463 kts | 19° |
| 2026-04-18 00:40 | -15.03717 | 158.03686 | 34982 ft | 463 kts | 19° |
| 2026-04-18 00:41 | -14.97674 | 158.05909 | 34979 ft | 463 kts | 19° |
| 2026-04-18 00:41 | -14.91608 | 158.08147 | 34975 ft | 462 kts | 19° |
| 2026-04-18 00:42 | -14.85532 | 158.10379 | 34980 ft | 462 kts | 19° |
| 2026-04-18 00:42 | -14.79471 | 158.12601 | 34980 ft | 462 kts | 19° |
| 2026-04-18 00:43 | -14.73443 | 158.14817 | 34982 ft | 461 kts | 19° |
| 2026-04-18 00:43 | -14.67380 | 158.17046 | 34979 ft | 461 kts | 19° |
| 2026-04-18 00:44 | -14.61351 | 158.19254 | 34973 ft | 461 kts | 19° |
| 2026-04-18 00:44 | -14.55298 | 158.21466 | 34980 ft | 461 kts | 19° |
| 2026-04-18 00:45 | -14.49254 | 158.23677 | 34983 ft | 460 kts | 19° |
| 2026-04-18 00:45 | -14.44231 | 158.25516 | 34985 ft | 460 kts | 19° |
| 2026-04-18 00:46 | -14.37211 | 158.28083 | 34979 ft | 460 kts | 19° |
| 2026-04-18 00:46 | -14.32195 | 158.29918 | 34980 ft | 459 kts | 19° |
| 2026-04-18 00:47 | -14.25177 | 158.32486 | 34978 ft | 459 kts | 19° |
| 2026-04-18 00:47 | -14.20161 | 158.34316 | 34978 ft | 459 kts | 19° |
| 2026-04-18 00:48 | -14.14142 | 158.36512 | 34980 ft | 458 kts | 19° |
| 2026-04-18 00:48 | -14.08117 | 158.38710 | 34982 ft | 458 kts | 19° |
| 2026-04-18 00:49 | -13.99128 | 158.41976 | 34977 ft | 458 kts | 19° |
| 2026-04-18 00:49 | -13.93120 | 158.44162 | 34977 ft | 458 kts | 19° |
| 2026-04-18 00:50 | -13.87101 | 158.46346 | 34973 ft | 458 kts | 20° |
| 2026-04-18 00:50 | -13.81086 | 158.48515 | 34971 ft | 458 kts | 20° |
| 2026-04-18 00:51 | -13.75069 | 158.50681 | 34975 ft | 458 kts | 20° |
| 2026-04-18 00:51 | -13.69047 | 158.52848 | 34976 ft | 458 kts | 20° |
| 2026-04-18 00:52 | -13.63076 | 158.54999 | 34973 ft | 458 kts | 20° |
| 2026-04-18 00:52 | -13.57046 | 158.57170 | 34977 ft | 458 kts | 20° |
| 2026-04-18 00:53 | -13.51060 | 158.59323 | 34974 ft | 458 kts | 19° |
| 2026-04-18 00:53 | -13.45031 | 158.61489 | 34973 ft | 458 kts | 20° |
| 2026-04-18 00:54 | -13.39052 | 158.63644 | 34973 ft | 458 kts | 20° |
| 2026-04-18 00:54 | -13.33027 | 158.65811 | 34973 ft | 457 kts | 20° |
| 2026-04-18 00:55 | -13.27005 | 158.67979 | 34973 ft | 457 kts | 20° |
| 2026-04-18 00:55 | -13.21018 | 158.70125 | 34972 ft | 457 kts | 20° |
| 2026-04-18 00:56 | -13.15004 | 158.72288 | 34970 ft | 457 kts | 20° |
| 2026-04-18 00:56 | -13.09015 | 158.74443 | 34972 ft | 457 kts | 20° |
| 2026-04-18 00:57 | -13.02996 | 158.76600 | 34975 ft | 457 kts | 20° |
| 2026-04-18 00:57 | -12.96979 | 158.78750 | 34975 ft | 457 kts | 20° |
| 2026-04-18 00:58 | -12.90966 | 158.80902 | 34971 ft | 457 kts | 20° |
| 2026-04-18 00:58 | -12.84993 | 158.83041 | 34974 ft | 457 kts | 20° |
| 2026-04-18 00:59 | -12.78970 | 158.85189 | 34974 ft | 457 kts | 20° |
| 2026-04-18 00:59 | -12.72959 | 158.87346 | 34969 ft | 457 kts | 20° |
| 2026-04-18 01:00 | -12.66945 | 158.89500 | 34971 ft | 457 kts | 20° |
| 2026-04-18 01:00 | -12.60971 | 158.91635 | 34970 ft | 457 kts | 20° |
| 2026-04-18 01:01 | -12.54956 | 158.93782 | 34971 ft | 457 kts | 20° |
| 2026-04-18 01:01 | -12.48939 | 158.95925 | 34969 ft | 457 kts | 20° |
| 2026-04-18 01:02 | -12.42926 | 158.98075 | 34970 ft | 457 kts | 20° |
| 2026-04-18 01:02 | -12.36945 | 159.00204 | 34963 ft | 457 kts | 20° |
| 2026-04-18 01:03 | -12.30954 | 159.02338 | 34968 ft | 457 kts | 20° |
| 2026-04-18 01:03 | -12.24941 | 159.04485 | 34975 ft | 456 kts | 21° |
| 2026-04-18 01:04 | -12.18980 | 159.06613 | 34971 ft | 456 kts | 20° |
| 2026-04-18 01:04 | -12.12987 | 159.08742 | 34973 ft | 456 kts | 20° |
| 2026-04-18 01:05 | -12.06996 | 159.10866 | 34970 ft | 455 kts | 20° |
| 2026-04-18 01:05 | -12.01001 | 159.13005 | 34968 ft | 455 kts | 21° |
| 2026-04-18 01:06 | -11.95020 | 159.15137 | 34967 ft | 455 kts | 21° |
| 2026-04-18 01:06 | -11.89072 | 159.17249 | 34969 ft | 455 kts | 21° |
| 2026-04-18 01:07 | -11.83083 | 159.19371 | 34968 ft | 454 kts | 21° |
| 2026-04-18 01:07 | -11.77107 | 159.21489 | 34968 ft | 454 kts | 21° |
| 2026-04-18 01:08 | -11.71182 | 159.23602 | 34966 ft | 453 kts | 21° |
| 2026-04-18 01:08 | -11.65222 | 159.25720 | 34969 ft | 453 kts | 21° |
| 2026-04-18 01:09 | -11.59252 | 159.27830 | 34968 ft | 453 kts | 21° |
| 2026-04-18 01:09 | -11.53285 | 159.29944 | 34964 ft | 453 kts | 21° |
| 2026-04-18 01:10 | -11.47362 | 159.32041 | 34964 ft | 453 kts | 21° |
| 2026-04-18 01:10 | -11.41388 | 159.34155 | 34957 ft | 453 kts | 21° |
| 2026-04-18 01:11 | -11.35469 | 159.36251 | 34959 ft | 453 kts | 21° |
| 2026-04-18 01:11 | -11.29497 | 159.38357 | 34958 ft | 453 kts | 21° |
| 2026-04-18 01:12 | -11.23566 | 159.40447 | 34838 ft | 450 kts | 21° |
| 2026-04-18 01:12 | -11.20618 | 159.41490 | 34612 ft | 445 kts | 21° |
| 2026-04-18 01:12 | -11.17697 | 159.42524 | 34383 ft | 443 kts | 21° |
| 2026-04-18 01:13 | -11.14792 | 159.43555 | 34157 ft | 441 kts | 21° |
| 2026-04-18 01:13 | -11.11896 | 159.44578 | 33929 ft | 439 kts | 21° |
| 2026-04-18 01:13 | -11.09005 | 159.45600 | 33673 ft | 437 kts | 21° |
| 2026-04-18 01:13 | -11.06162 | 159.46603 | 33420 ft | 435 kts | 21° |
| 2026-04-18 01:14 | -11.03310 | 159.47608 | 33166 ft | 433 kts | 21° |
| 2026-04-18 01:14 | -11.00465 | 159.48610 | 32914 ft | 431 kts | 21° |
| 2026-04-18 01:14 | -10.97639 | 159.49607 | 32664 ft | 428 kts | 21° |
| 2026-04-18 01:14 | -10.94832 | 159.50600 | 32419 ft | 426 kts | 21° |
| 2026-04-18 01:15 | -10.92032 | 159.51592 | 32174 ft | 423 kts | 21° |
| 2026-04-18 01:15 | -10.89292 | 159.52563 | 31930 ft | 421 kts | 21° |
| 2026-04-18 01:15 | -10.86523 | 159.53542 | 31696 ft | 419 kts | 21° |
| 2026-04-18 01:15 | -10.83784 | 159.54514 | 31410 ft | 414 kts | 21° |
| 2026-04-18 01:16 | -10.81073 | 159.55476 | 30965 ft | 412 kts | 21° |
| 2026-04-18 01:16 | -10.78355 | 159.56437 | 30528 ft | 411 kts | 21° |
| 2026-04-18 01:16 | -10.75656 | 159.57390 | 30099 ft | 409 kts | 20° |
| 2026-04-18 01:16 | -10.72998 | 159.58329 | 29634 ft | 408 kts | 21° |
| 2026-04-18 01:17 | -10.70324 | 159.59276 | 29222 ft | 404 kts | 21° |
| 2026-04-18 01:17 | -10.67675 | 159.60215 | 28811 ft | 402 kts | 21° |
| 2026-04-18 01:17 | -10.65035 | 159.61147 | 28416 ft | 399 kts | 21° |
| 2026-04-18 01:17 | -10.62449 | 159.62060 | 28032 ft | 397 kts | 21° |
| 2026-04-18 01:18 | -10.59840 | 159.62979 | 27630 ft | 395 kts | 21° |
| 2026-04-18 01:18 | -10.57232 | 159.63897 | 27224 ft | 394 kts | 21° |
| 2026-04-18 01:18 | -10.54670 | 159.64801 | 26826 ft | 393 kts | 21° |
| 2026-04-18 01:18 | -10.52084 | 159.65714 | 26405 ft | 392 kts | 21° |
| 2026-04-18 01:19 | -10.49506 | 159.66624 | 25988 ft | 391 kts | 21° |
| 2026-04-18 01:19 | -10.46936 | 159.67527 | 25554 ft | 391 kts | 21° |
| 2026-04-18 01:19 | -10.44364 | 159.68432 | 25117 ft | 390 kts | 21° |
| 2026-04-18 01:19 | -10.41830 | 159.69325 | 24680 ft | 390 kts | 21° |
| 2026-04-18 01:20 | -10.39201 | 159.70076 | 24218 ft | 392 kts | 11° |
| 2026-04-18 01:20 | -10.36467 | 159.70250 | 23761 ft | 395 kts | 358° |
| 2026-04-18 01:20 | -10.33721 | 159.69960 | 23258 ft | 396 kts | 355° |
| 2026-04-18 01:20 | -10.31028 | 159.69642 | 22818 ft | 393 kts | 355° |
| 2026-04-18 01:21 | -10.28314 | 159.69325 | 22441 ft | 388 kts | 355° |
| 2026-04-18 01:21 | -10.25624 | 159.69011 | 21900 ft | 388 kts | 355° |
| 2026-04-18 01:21 | -10.22968 | 159.68706 | 21576 ft | 382 kts | 355° |
| 2026-04-18 01:21 | -10.20331 | 159.68405 | 21070 ft | 379 kts | 355° |
| 2026-04-18 01:22 | -10.17736 | 159.68106 | 20424 ft | 372 kts | 355° |
| 2026-04-18 01:22 | -10.15193 | 159.67813 | 19996 ft | 370 kts | 355° |
| 2026-04-18 01:22 | -10.12631 | 159.67519 | 19538 ft | 369 kts | 355° |
| 2026-04-18 01:22 | -10.10072 | 159.67223 | 19085 ft | 368 kts | 355° |
| 2026-04-18 01:23 | -10.07531 | 159.66928 | 18640 ft | 367 kts | 355° |
| 2026-04-18 01:23 | -10.05020 | 159.66636 | 18246 ft | 364 kts | 355° |
| 2026-04-18 01:23 | -10.02497 | 159.66346 | 17745 ft | 362 kts | 355° |
| 2026-04-18 01:23 | -10.00023 | 159.66063 | 17252 ft | 354 kts | 354° |
| 2026-04-18 01:24 | -9.97597 | 159.65781 | 16814 ft | 345 kts | 354° |
| 2026-04-18 01:24 | -9.95250 | 159.65506 | 16406 ft | 341 kts | 354° |
| 2026-04-18 01:24 | -9.92885 | 159.65230 | 15973 ft | 340 kts | 354° |
| 2026-04-18 01:24 | -9.90531 | 159.64958 | 15556 ft | 339 kts | 354° |
| 2026-04-18 01:25 | -9.88218 | 159.64694 | 15150 ft | 338 kts | 354° |
| 2026-04-18 01:25 | -9.85883 | 159.64428 | 14731 ft | 337 kts | 354° |
| 2026-04-18 01:25 | -9.83556 | 159.64160 | 14312 ft | 336 kts | 354° |
| 2026-04-18 01:25 | -9.81224 | 159.63892 | 13896 ft | 335 kts | 354° |
| 2026-04-18 01:26 | -9.78909 | 159.63627 | 13440 ft | 331 kts | 354° |
| 2026-04-18 01:26 | -9.76667 | 159.63369 | 13039 ft | 317 kts | 354° |
| 2026-04-18 01:26 | -9.74543 | 159.63125 | 12650 ft | 305 kts | 354° |
| 2026-04-18 01:26 | -9.72473 | 159.62886 | 12277 ft | 295 kts | 354° |
| 2026-04-18 01:27 | -9.70429 | 159.62649 | 11909 ft | 295 kts | 353° |
| 2026-04-18 01:27 | -9.68391 | 159.62413 | 11606 ft | 293 kts | 353° |
| 2026-04-18 01:27 | -9.66364 | 159.62180 | 11249 ft | 293 kts | 354° |
| 2026-04-18 01:27 | -9.64329 | 159.61948 | 10876 ft | 294 kts | 353° |
| 2026-04-18 01:28 | -9.62289 | 159.61714 | 10503 ft | 295 kts | 353° |
| 2026-04-18 01:28 | -9.60260 | 159.61481 | 10138 ft | 296 kts | 353° |
| 2026-04-18 01:28 | -9.58203 | 159.61245 | 9755 ft | 298 kts | 354° |
| 2026-04-18 01:28 | -9.56139 | 159.61312 | 9341 ft | 297 kts | 15° |
| 2026-04-18 01:29 | -9.54350 | 159.62269 | 8970 ft | 295 kts | 43° |
| 2026-04-18 01:29 | -9.53184 | 159.63965 | 8582 ft | 294 kts | 70° |
| 2026-04-18 01:29 | -9.52846 | 159.66003 | 8190 ft | 294 kts | 86° |
| 2026-04-18 01:29 | -9.52735 | 159.68056 | 7861 ft | 290 kts | 86° |
| 2026-04-18 01:30 | -9.52634 | 159.70078 | 7420 ft | 282 kts | 87° |
| 2026-04-18 01:30 | -9.52536 | 159.72025 | 7060 ft | 271 kts | 87° |
| 2026-04-18 01:30 | -9.52440 | 159.73904 | 6709 ft | 271 kts | 86° |
| 2026-04-18 01:30 | -9.52341 | 159.75819 | 6345 ft | 273 kts | 86° |
| 2026-04-18 01:31 | -9.52238 | 159.77748 | 5957 ft | 275 kts | 86° |
| 2026-04-18 01:31 | -9.52133 | 159.79684 | 5585 ft | 275 kts | 86° |
| 2026-04-18 01:31 | -9.52024 | 159.81626 | 5213 ft | 272 kts | 85° |
| 2026-04-18 01:31 | -9.51641 | 159.83435 | 4851 ft | 257 kts | 68° |
| 2026-04-18 01:32 | -9.50991 | 159.85047 | 4508 ft | 244 kts | 68° |
| 2026-04-18 01:32 | -9.50375 | 159.86587 | 4167 ft | 225 kts | 69° |
| 2026-04-18 01:32 | -9.49810 | 159.88000 | 3867 ft | 209 kts | 68° |
| 2026-04-18 01:32 | -9.49281 | 159.89322 | 3645 ft | 196 kts | 68° |
| 2026-04-18 01:33 | -9.48946 | 159.90156 | 3430 ft | 190 kts | 68° |
| 2026-04-18 01:33 | -9.48317 | 159.91721 | 3095 ft | 167 kts | 69° |
| 2026-04-18 01:33 | -9.48031 | 159.92431 | 2936 ft | 155 kts | 68° |
| 2026-04-18 01:33 | -9.47641 | 159.93401 | 2727 ft | 147 kts | 68° |
| 2026-04-18 01:34 | -9.47261 | 159.94354 | 2517 ft | 144 kts | 68° |
| 2026-04-18 01:34 | -9.46889 | 159.95285 | 2292 ft | 142 kts | 68° |
| 2026-04-18 01:34 | -9.46521 | 159.96205 | 2066 ft | 140 kts | 67° |
| 2026-04-18 01:34 | -9.46156 | 159.97111 | 1863 ft | 140 kts | 66° |
| 2026-04-18 01:35 | -9.45789 | 159.98025 | 1644 ft | 139 kts | 65° |
| 2026-04-18 01:35 | -9.45425 | 159.98933 | 1422 ft | 139 kts | 66° |
| 2026-04-18 01:35 | -9.45066 | 159.99829 | 1214 ft | 136 kts | 65° |
| 2026-04-18 01:35 | -9.44712 | 160.00713 | 1010 ft | 135 kts | 66° |
| 2026-04-18 01:36 | -9.44359 | 160.01596 | 805 ft | 135 kts | 66° |
| 2026-04-18 01:36 | -9.44005 | 160.02480 | 592 ft | 134 kts | 66° |
| 2026-04-18 01:36 | -9.43646 | 160.03361 | 349 ft | 136 kts | 67° |
| 2026-04-18 01:36 | -9.43313 | 160.04241 | 113 ft | 132 kts | 62° |
| 2026-04-18 01:37 | -9.42963 | 160.05085 | 33 ft | 121 kts | 63° |
| 2026-04-18 01:37 | -9.42703 | 160.05723 | 27 ft | 75 kts | 68° |
| 2026-04-18 01:37 | -9.42557 | 160.06091 | 26 ft | 41 kts | 69° |
| 2026-04-18 01:37 | -9.42468 | 160.06285 | 27 ft | 19 kts | 39° |
| 2026-04-18 01:38 | -9.42436 | 160.06345 | 26 ft | 4 kts | 160° |
| 2026-04-18 01:38 | -9.42461 | 160.06327 | 26 ft | 6 kts | 223° |
| 2026-04-18 01:38 | -9.42485 | 160.06282 | 27 ft | 9 kts | 248° |
| 2026-04-18 01:38 | -9.42512 | 160.06216 | 25 ft | 12 kts | 248° |
| 2026-04-18 01:39 | -9.42546 | 160.06130 | 25 ft | 14 kts | 248° |
| 2026-04-18 01:39 | -9.42595 | 160.06011 | 26 ft | 24 kts | 247° |
| 2026-04-18 01:39 | -9.42665 | 160.05832 | 26 ft | 27 kts | 249° |
| 2026-04-18 01:39 | -9.42737 | 160.05647 | 29 ft | 29 kts | 248° |
| 2026-04-18 01:40 | -9.42811 | 160.05467 | 30 ft | 27 kts | 246° |
| 2026-04-18 01:40 | -9.42880 | 160.05293 | 33 ft | 27 kts | 249° |
| 2026-04-18 01:40 | -9.42950 | 160.05114 | 32 ft | 28 kts | 248° |
| 2026-04-18 01:40 | -9.43011 | 160.04964 | 33 ft | 12 kts | 248° |
| 2026-04-18 01:41 | -9.43009 | 160.04884 | 31 ft | 10 kts | 323° |
| 2026-04-18 01:41 | -9.42969 | 160.04866 | 34 ft | 4 kts | 338° |
| 2026-04-18 01:41 | -9.42938 | 160.04853 | 34 ft | 4 kts | 336° |
| 2026-04-18 01:41 | -9.42925 | 160.04841 | 34 ft | 2 kts | 316° |
| 2026-04-18 01:42 | -9.42919 | 160.04835 | 34 ft | 1 kts | 314° |
| 2026-04-18 01:42 | -9.42918 | 160.04834 | 34 ft | 0 kts | 314° |